sensor_id;sensor_type;location;lat;lon;timestamp;temperature;humidity
11838;DHT22;5978;51.020;6.764;2024-01-27T00:01:13;4.30;99.90
11838;DHT22;5978;51.020;6.764;2024-01-27T00:03:39;4.30;99.90
11838;DHT22;5978;51.020;6.764;2024-01-27T00:06:05;4.30;99.90
11838;DHT22;5978;51.020;6.764;2024-01-27T00:08:30;4.30;99.90
11838;DHT22;5978;51.020;6.764;2024-01-27T00:10:56;4.20;99.90
11838;DHT22;5978;51.020;6.764;2024-01-27T00:13:21;4.20;99.90
11838;DHT22;5978;51.020;6.764;2024-01-27T00:15:47;4.20;99.90
11838;DHT22;5978;51.020;6.764;2024-01-27T00:18:14;4.20;99.90
11838;DHT22;5978;51.020;6.764;2024-01-27T00:20:40;4.10;99.90
11838;DHT22;5978;51.020;6.764;2024-01-27T00:23:05;4.10;99.90
11838;DHT22;5978;51.020;6.764;2024-01-27T00:25:31;4.10;99.90
11838;DHT22;5978;51.020;6.764;2024-01-27T00:27:56;4.10;99.90
11838;DHT22;5978;51.020;6.764;2024-01-27T00:30:22;4.10;99.90
11838;DHT22;5978;51.020;6.764;2024-01-27T00:32:48;4.00;99.90
11838;DHT22;5978;51.020;6.764;2024-01-27T00:35:13;4.00;99.90
11838;DHT22;5978;51.020;6.764;2024-01-27T00:37:40;4.00;99.90
11838;DHT22;5978;51.020;6.764;2024-01-27T00:40:10;3.90;99.90
11838;DHT22;5978;51.020;6.764;2024-01-27T00:42:37;3.90;99.90
11838;DHT22;5978;51.020;6.764;2024-01-27T00:45:04;3.90;99.90
11838;DHT22;5978;51.020;6.764;2024-01-27T00:47:30;3.80;99.90
11838;DHT22;5978;51.020;6.764;2024-01-27T00:49:55;3.80;99.90
11838;DHT22;5978;51.020;6.764;2024-01-27T00:52:21;3.80;99.90
11838;DHT22;5978;51.020;6.764;2024-01-27T00:54:46;3.80;99.90
11838;DHT22;5978;51.020;6.764;2024-01-27T00:57:12;3.80;99.90
11838;DHT22;5978;51.020;6.764;2024-01-27T00:59:38;3.80;99.90
11838;DHT22;5978;51.020;6.764;2024-01-27T01:02:04;3.80;99.90
11838;DHT22;5978;51.020;6.764;2024-01-27T01:04:30;3.70;99.90
11838;DHT22;5978;51.020;6.764;2024-01-27T01:06:55;3.70;99.90
11838;DHT22;5978;51.020;6.764;2024-01-27T01:09:21;3.60;99.90
11838;DHT22;5978;51.020;6.764;2024-01-27T01:11:47;3.60;99.90
11838;DHT22;5978;51.020;6.764;2024-01-27T01:14:12;3.60;99.90
11838;DHT22;5978;51.020;6.764;2024-01-27T01:16:39;3.60;99.90
11838;DHT22;5978;51.020;6.764;2024-01-27T01:19:05;3.60;99.90
11838;DHT22;5978;51.020;6.764;2024-01-27T01:21:30;3.60;99.90
11838;DHT22;5978;51.020;6.764;2024-01-27T01:23:56;3.50;99.90
11838;DHT22;5978;51.020;6.764;2024-01-27T01:26:22;3.60;99.90
11838;DHT22;5978;51.020;6.764;2024-01-27T01:28:47;3.50;99.90
11838;DHT22;5978;51.020;6.764;2024-01-27T01:31:13;3.50;99.90
11838;DHT22;5978;51.020;6.764;2024-01-27T01:33:39;3.40;99.90
11838;DHT22;5978;51.020;6.764;2024-01-27T01:36:05;3.40;99.90
11838;DHT22;5978;51.020;6.764;2024-01-27T01:38:31;3.40;99.90
11838;DHT22;5978;51.020;6.764;2024-01-27T01:40:56;3.50;99.90
11838;DHT22;5978;51.020;6.764;2024-01-27T01:43:22;3.40;99.90
11838;DHT22;5978;51.020;6.764;2024-01-27T01:45:47;3.30;99.90
11838;DHT22;5978;51.020;6.764;2024-01-27T01:48:15;3.30;99.90
11838;DHT22;5978;51.020;6.764;2024-01-27T01:50:41;3.30;99.90
11838;DHT22;5978;51.020;6.764;2024-01-27T01:53:07;3.30;99.90
11838;DHT22;5978;51.020;6.764;2024-01-27T01:55:34;3.30;99.90
11838;DHT22;5978;51.020;6.764;2024-01-27T01:58:00;3.30;99.90
11838;DHT22;5978;51.020;6.764;2024-01-27T02:00:25;3.30;99.90
11838;DHT22;5978;51.020;6.764;2024-01-27T02:02:51;3.20;99.90
11838;DHT22;5978;51.020;6.764;2024-01-27T02:05:16;3.20;99.90
11838;DHT22;5978;51.020;6.764;2024-01-27T02:07:42;3.20;99.90
11838;DHT22;5978;51.020;6.764;2024-01-27T02:10:13;3.20;99.90
11838;DHT22;5978;51.020;6.764;2024-01-27T02:12:41;3.20;99.90
11838;DHT22;5978;51.020;6.764;2024-01-27T02:15:13;3.20;99.90
11838;DHT22;5978;51.020;6.764;2024-01-27T02:17:39;3.20;99.90
11838;DHT22;5978;51.020;6.764;2024-01-27T02:20:06;3.20;99.90
11838;DHT22;5978;51.020;6.764;2024-01-27T02:22:35;3.10;99.90
11838;DHT22;5978;51.020;6.764;2024-01-27T02:25:02;3.10;99.90
11838;DHT22;5978;51.020;6.764;2024-01-27T02:27:28;3.10;99.90
11838;DHT22;5978;51.020;6.764;2024-01-27T02:29:53;3.00;99.90
11838;DHT22;5978;51.020;6.764;2024-01-27T02:32:19;3.00;99.90
11838;DHT22;5978;51.020;6.764;2024-01-27T02:34:44;3.00;99.90
11838;DHT22;5978;51.020;6.764;2024-01-27T02:37:10;3.00;99.90
11838;DHT22;5978;51.020;6.764;2024-01-27T02:39:36;3.00;99.90
11838;DHT22;5978;51.020;6.764;2024-01-27T02:42:02;3.00;99.90
11838;DHT22;5978;51.020;6.764;2024-01-27T02:44:28;2.90;99.90
11838;DHT22;5978;51.020;6.764;2024-01-27T02:46:53;2.90;99.90
11838;DHT22;5978;51.020;6.764;2024-01-27T02:49:19;3.00;99.90
11838;DHT22;5978;51.020;6.764;2024-01-27T02:51:44;2.90;99.90
11838;DHT22;5978;51.020;6.764;2024-01-27T02:54:10;2.90;99.90
11838;DHT22;5978;51.020;6.764;2024-01-27T02:56:36;2.90;99.90
11838;DHT22;5978;51.020;6.764;2024-01-27T02:59:02;2.90;99.90
11838;DHT22;5978;51.020;6.764;2024-01-27T03:01:27;2.80;99.90
11838;DHT22;5978;51.020;6.764;2024-01-27T03:03:53;2.90;99.90
11838;DHT22;5978;51.020;6.764;2024-01-27T03:06:18;2.90;99.90
11838;DHT22;5978;51.020;6.764;2024-01-27T03:08:44;2.90;99.90
11838;DHT22;5978;51.020;6.764;2024-01-27T03:11:10;2.90;99.90
11838;DHT22;5978;51.020;6.764;2024-01-27T03:13:36;2.90;99.90
11838;DHT22;5978;51.020;6.764;2024-01-27T03:16:02;2.90;99.90
11838;DHT22;5978;51.020;6.764;2024-01-27T03:18:27;2.90;99.90
11838;DHT22;5978;51.020;6.764;2024-01-27T03:20:53;2.90;99.90
11838;DHT22;5978;51.020;6.764;2024-01-27T03:23:18;2.80;99.90
11838;DHT22;5978;51.020;6.764;2024-01-27T03:25:44;2.90;99.90
11838;DHT22;5978;51.020;6.764;2024-01-27T03:28:10;2.90;99.90
11838;DHT22;5978;51.020;6.764;2024-01-27T03:30:35;2.90;99.90
11838;DHT22;5978;51.020;6.764;2024-01-27T03:33:01;2.80;99.90
11838;DHT22;5978;51.020;6.764;2024-01-27T03:35:26;2.80;99.90
11838;DHT22;5978;51.020;6.764;2024-01-27T03:37:52;2.80;99.90
11838;DHT22;5978;51.020;6.764;2024-01-27T03:40:18;2.70;99.90
11838;DHT22;5978;51.020;6.764;2024-01-27T03:42:43;2.70;99.90
11838;DHT22;5978;51.020;6.764;2024-01-27T03:45:09;2.70;99.90
11838;DHT22;5978;51.020;6.764;2024-01-27T03:47:35;2.70;99.90
11838;DHT22;5978;51.020;6.764;2024-01-27T03:50:00;2.70;99.90
11838;DHT22;5978;51.020;6.764;2024-01-27T03:52:26;2.60;99.90
11838;DHT22;5978;51.020;6.764;2024-01-27T03:54:51;2.60;99.90
11838;DHT22;5978;51.020;6.764;2024-01-27T03:57:17;2.60;99.90
11838;DHT22;5978;51.020;6.764;2024-01-27T03:59:43;2.60;99.90
11838;DHT22;5978;51.020;6.764;2024-01-27T04:02:08;2.60;99.90
11838;DHT22;5978;51.020;6.764;2024-01-27T04:04:34;2.50;99.90
11838;DHT22;5978;51.020;6.764;2024-01-27T04:06:59;2.50;99.90
11838;DHT22;5978;51.020;6.764;2024-01-27T04:09:27;2.50;99.90
11838;DHT22;5978;51.020;6.764;2024-01-27T04:11:52;2.50;99.90
11838;DHT22;5978;51.020;6.764;2024-01-27T04:14:18;2.50;99.90
11838;DHT22;5978;51.020;6.764;2024-01-27T04:16:43;2.50;99.90
11838;DHT22;5978;51.020;6.764;2024-01-27T04:19:09;2.50;99.90
11838;DHT22;5978;51.020;6.764;2024-01-27T04:21:35;2.50;99.90
11838;DHT22;5978;51.020;6.764;2024-01-27T04:24:00;2.50;99.90
11838;DHT22;5978;51.020;6.764;2024-01-27T04:26:26;2.50;99.90
11838;DHT22;5978;51.020;6.764;2024-01-27T04:28:51;2.50;99.90
11838;DHT22;5978;51.020;6.764;2024-01-27T04:31:17;2.50;99.90
11838;DHT22;5978;51.020;6.764;2024-01-27T04:33:43;2.50;99.90
11838;DHT22;5978;51.020;6.764;2024-01-27T04:36:08;2.50;99.90
11838;DHT22;5978;51.020;6.764;2024-01-27T04:38:35;2.40;99.90
11838;DHT22;5978;51.020;6.764;2024-01-27T04:41:01;2.50;99.90
11838;DHT22;5978;51.020;6.764;2024-01-27T04:43:27;2.50;99.90
11838;DHT22;5978;51.020;6.764;2024-01-27T04:45:54;2.50;99.90
11838;DHT22;5978;51.020;6.764;2024-01-27T04:48:20;2.50;99.90
11838;DHT22;5978;51.020;6.764;2024-01-27T04:50:45;2.50;99.90
11838;DHT22;5978;51.020;6.764;2024-01-27T04:53:12;2.50;99.90
11838;DHT22;5978;51.020;6.764;2024-01-27T04:55:37;2.50;99.90
11838;DHT22;5978;51.020;6.764;2024-01-27T04:58:03;2.50;99.90
11838;DHT22;5978;51.020;6.764;2024-01-27T05:00:29;2.60;99.90
11838;DHT22;5978;51.020;6.764;2024-01-27T05:02:55;2.60;99.90
11838;DHT22;5978;51.020;6.764;2024-01-27T05:05:22;2.60;99.90
11838;DHT22;5978;51.020;6.764;2024-01-27T05:07:48;2.60;99.90
11838;DHT22;5978;51.020;6.764;2024-01-27T05:10:15;2.50;99.90
11838;DHT22;5978;51.020;6.764;2024-01-27T05:12:41;2.50;99.90
11838;DHT22;5978;51.020;6.764;2024-01-27T05:15:07;2.50;99.90
11838;DHT22;5978;51.020;6.764;2024-01-27T05:17:33;2.50;99.90
11838;DHT22;5978;51.020;6.764;2024-01-27T05:19:59;2.50;99.90
11838;DHT22;5978;51.020;6.764;2024-01-27T05:22:25;2.50;99.90
11838;DHT22;5978;51.020;6.764;2024-01-27T05:24:50;2.50;99.90
11838;DHT22;5978;51.020;6.764;2024-01-27T05:27:16;2.50;99.90
11838;DHT22;5978;51.020;6.764;2024-01-27T05:29:42;2.50;99.90
11838;DHT22;5978;51.020;6.764;2024-01-27T05:32:08;2.50;99.90
11838;DHT22;5978;51.020;6.764;2024-01-27T05:34:34;2.50;99.90
11838;DHT22;5978;51.020;6.764;2024-01-27T05:36:59;2.50;99.90
11838;DHT22;5978;51.020;6.764;2024-01-27T05:39:25;2.50;99.90
11838;DHT22;5978;51.020;6.764;2024-01-27T05:41:50;2.50;99.90
11838;DHT22;5978;51.020;6.764;2024-01-27T05:44:16;2.50;99.90
11838;DHT22;5978;51.020;6.764;2024-01-27T05:46:42;2.40;99.90
11838;DHT22;5978;51.020;6.764;2024-01-27T05:49:07;2.50;99.90
11838;DHT22;5978;51.020;6.764;2024-01-27T05:51:33;2.50;99.90
11838;DHT22;5978;51.020;6.764;2024-01-27T05:53:59;2.50;99.90
11838;DHT22;5978;51.020;6.764;2024-01-27T05:56:24;2.40;99.90
11838;DHT22;5978;51.020;6.764;2024-01-27T05:58:50;2.50;99.90
11838;DHT22;5978;51.020;6.764;2024-01-27T06:01:18;2.40;99.90
11838;DHT22;5978;51.020;6.764;2024-01-27T06:03:44;2.40;99.90
11838;DHT22;5978;51.020;6.764;2024-01-27T06:06:10;2.40;99.90
11838;DHT22;5978;51.020;6.764;2024-01-27T06:08:36;2.40;99.90
11838;DHT22;5978;51.020;6.764;2024-01-27T06:11:02;2.40;99.90
11838;DHT22;5978;51.020;6.764;2024-01-27T06:13:28;2.40;99.90
11838;DHT22;5978;51.020;6.764;2024-01-27T06:15:54;2.40;99.90
11838;DHT22;5978;51.020;6.764;2024-01-27T06:18:20;2.40;99.90
11838;DHT22;5978;51.020;6.764;2024-01-27T06:20:46;2.40;99.90
11838;DHT22;5978;51.020;6.764;2024-01-27T06:23:11;2.50;99.90
11838;DHT22;5978;51.020;6.764;2024-01-27T06:25:37;2.40;99.90
11838;DHT22;5978;51.020;6.764;2024-01-27T06:28:03;2.30;99.90
11838;DHT22;5978;51.020;6.764;2024-01-27T06:30:28;2.30;99.90
11838;DHT22;5978;51.020;6.764;2024-01-27T06:32:54;2.20;99.90
11838;DHT22;5978;51.020;6.764;2024-01-27T06:35:19;2.20;99.90
11838;DHT22;5978;51.020;6.764;2024-01-27T06:37:45;2.10;99.90
11838;DHT22;5978;51.020;6.764;2024-01-27T06:40:11;2.10;99.90
11838;DHT22;5978;51.020;6.764;2024-01-27T06:42:37;2.10;99.90
11838;DHT22;5978;51.020;6.764;2024-01-27T06:45:03;2.10;99.90
11838;DHT22;5978;51.020;6.764;2024-01-27T06:47:29;2.10;99.90
11838;DHT22;5978;51.020;6.764;2024-01-27T06:49:55;2.10;99.90
11838;DHT22;5978;51.020;6.764;2024-01-27T06:52:20;2.10;99.90
11838;DHT22;5978;51.020;6.764;2024-01-27T06:54:46;2.10;99.90
11838;DHT22;5978;51.020;6.764;2024-01-27T06:57:22;2.00;99.90
11838;DHT22;5978;51.020;6.764;2024-01-27T06:59:50;1.90;99.90
11838;DHT22;5978;51.020;6.764;2024-01-27T07:02:24;1.80;99.90
11838;DHT22;5978;51.020;6.764;2024-01-27T07:04:50;1.80;99.90
11838;DHT22;5978;51.020;6.764;2024-01-27T07:07:16;1.80;99.90
11838;DHT22;5978;51.020;6.764;2024-01-27T07:09:41;1.70;99.90
11838;DHT22;5978;51.020;6.764;2024-01-27T07:12:07;1.60;99.90
11838;DHT22;5978;51.020;6.764;2024-01-27T07:14:34;1.50;99.90
11838;DHT22;5978;51.020;6.764;2024-01-27T07:17:00;1.50;99.90
11838;DHT22;5978;51.020;6.764;2024-01-27T07:19:26;1.50;99.90
11838;DHT22;5978;51.020;6.764;2024-01-27T07:21:52;1.50;99.90
11838;DHT22;5978;51.020;6.764;2024-01-27T07:24:17;1.50;99.90
11838;DHT22;5978;51.020;6.764;2024-01-27T07:26:43;1.50;99.90
11838;DHT22;5978;51.020;6.764;2024-01-27T07:29:08;1.50;99.90
11838;DHT22;5978;51.020;6.764;2024-01-27T07:31:34;1.50;99.90
11838;DHT22;5978;51.020;6.764;2024-01-27T07:33:59;1.50;99.90
11838;DHT22;5978;51.020;6.764;2024-01-27T07:36:25;1.50;99.90
11838;DHT22;5978;51.020;6.764;2024-01-27T07:38:51;1.50;99.90
11838;DHT22;5978;51.020;6.764;2024-01-27T07:41:17;1.50;99.90
11838;DHT22;5978;51.020;6.764;2024-01-27T07:43:42;1.50;99.90
11838;DHT22;5978;51.020;6.764;2024-01-27T07:46:08;1.50;99.90
11838;DHT22;5978;51.020;6.764;2024-01-27T07:48:33;1.60;99.90
11838;DHT22;5978;51.020;6.764;2024-01-27T07:50:59;1.60;99.90
11838;DHT22;5978;51.020;6.764;2024-01-27T07:53:25;1.60;99.90
11838;DHT22;5978;51.020;6.764;2024-01-27T07:55:51;1.60;99.90
11838;DHT22;5978;51.020;6.764;2024-01-27T07:58:19;1.60;99.90
11838;DHT22;5978;51.020;6.764;2024-01-27T08:00:48;1.60;99.90
11838;DHT22;5978;51.020;6.764;2024-01-27T08:03:13;1.70;99.90
11838;DHT22;5978;51.020;6.764;2024-01-27T08:05:39;1.80;99.90
11838;DHT22;5978;51.020;6.764;2024-01-27T08:08:05;1.90;99.90
11838;DHT22;5978;51.020;6.764;2024-01-27T08:10:31;2.00;99.90
11838;DHT22;5978;51.020;6.764;2024-01-27T08:12:56;2.10;99.90
11838;DHT22;5978;51.020;6.764;2024-01-27T08:15:22;2.30;99.90
11838;DHT22;5978;51.020;6.764;2024-01-27T08:17:47;2.40;99.90
11838;DHT22;5978;51.020;6.764;2024-01-27T08:20:13;2.50;99.90
11838;DHT22;5978;51.020;6.764;2024-01-27T08:22:39;2.70;99.90
11838;DHT22;5978;51.020;6.764;2024-01-27T08:25:05;2.80;99.90
11838;DHT22;5978;51.020;6.764;2024-01-27T08:27:31;3.00;99.90
11838;DHT22;5978;51.020;6.764;2024-01-27T08:29:56;3.10;99.90
11838;DHT22;5978;51.020;6.764;2024-01-27T08:32:22;3.30;99.90
11838;DHT22;5978;51.020;6.764;2024-01-27T08:34:48;3.40;99.90
11838;DHT22;5978;51.020;6.764;2024-01-27T08:37:20;3.50;99.90
11838;DHT22;5978;51.020;6.764;2024-01-27T08:39:46;3.70;99.90
11838;DHT22;5978;51.020;6.764;2024-01-27T08:42:11;3.90;99.90
11838;DHT22;5978;51.020;6.764;2024-01-27T08:44:38;3.90;99.90
11838;DHT22;5978;51.020;6.764;2024-01-27T08:47:04;3.90;99.90
11838;DHT22;5978;51.020;6.764;2024-01-27T08:49:29;3.80;99.90
11838;DHT22;5978;51.020;6.764;2024-01-27T08:51:55;3.80;99.90
11838;DHT22;5978;51.020;6.764;2024-01-27T08:54:21;3.80;99.90
11838;DHT22;5978;51.020;6.764;2024-01-27T08:56:47;4.10;99.90
11838;DHT22;5978;51.020;6.764;2024-01-27T08:59:13;4.40;99.90
11838;DHT22;5978;51.020;6.764;2024-01-27T09:01:38;4.60;99.90
11838;DHT22;5978;51.020;6.764;2024-01-27T09:04:04;4.70;99.90
11838;DHT22;5978;51.020;6.764;2024-01-27T09:06:29;5.00;99.90
11838;DHT22;5978;51.020;6.764;2024-01-27T09:08:55;5.50;99.90
11838;DHT22;5978;51.020;6.764;2024-01-27T09:11:21;5.90;99.90
11838;DHT22;5978;51.020;6.764;2024-01-27T09:13:49;6.00;99.90
11838;DHT22;5978;51.020;6.764;2024-01-27T09:16:17;6.40;99.90
11838;DHT22;5978;51.020;6.764;2024-01-27T09:18:43;6.80;99.90
11838;DHT22;5978;51.020;6.764;2024-01-27T09:21:08;7.40;99.90
11838;DHT22;5978;51.020;6.764;2024-01-27T09:23:34;7.90;99.90
11838;DHT22;5978;51.020;6.764;2024-01-27T09:26:00;8.40;99.90
11838;DHT22;5978;51.020;6.764;2024-01-27T09:28:26;8.80;99.90
11838;DHT22;5978;51.020;6.764;2024-01-27T09:30:51;8.80;99.90
11838;DHT22;5978;51.020;6.764;2024-01-27T09:33:17;8.70;99.90
11838;DHT22;5978;51.020;6.764;2024-01-27T09:35:45;8.90;99.90
11838;DHT22;5978;51.020;6.764;2024-01-27T09:38:11;8.90;99.90
11838;DHT22;5978;51.020;6.764;2024-01-27T09:40:40;8.90;99.90
11838;DHT22;5978;51.020;6.764;2024-01-27T09:43:05;9.10;99.90
11838;DHT22;5978;51.020;6.764;2024-01-27T09:45:32;9.60;99.90
11838;DHT22;5978;51.020;6.764;2024-01-27T09:47:58;9.70;99.90
11838;DHT22;5978;51.020;6.764;2024-01-27T09:50:24;9.80;99.90
11838;DHT22;5978;51.020;6.764;2024-01-27T09:52:50;10.40;99.90
11838;DHT22;5978;51.020;6.764;2024-01-27T09:55:16;10.30;99.90
11838;DHT22;5978;51.020;6.764;2024-01-27T09:57:41;10.10;99.90
11838;DHT22;5978;51.020;6.764;2024-01-27T10:00:10;10.10;99.90
11838;DHT22;5978;51.020;6.764;2024-01-27T10:02:39;9.80;99.90
11838;DHT22;5978;51.020;6.764;2024-01-27T10:05:07;9.80;99.90
11838;DHT22;5978;51.020;6.764;2024-01-27T10:07:33;9.80;99.90
11838;DHT22;5978;51.020;6.764;2024-01-27T10:09:59;10.10;99.90
11838;DHT22;5978;51.020;6.764;2024-01-27T10:12:26;10.30;99.90
11838;DHT22;5978;51.020;6.764;2024-01-27T10:14:53;10.60;99.90
11838;DHT22;5978;51.020;6.764;2024-01-27T10:17:22;10.80;99.90
11838;DHT22;5978;51.020;6.764;2024-01-27T10:20:05;11.00;99.90
11838;DHT22;5978;51.020;6.764;2024-01-27T10:22:40;11.80;99.90
11838;DHT22;5978;51.020;6.764;2024-01-27T10:25:07;12.30;99.90
11838;DHT22;5978;51.020;6.764;2024-01-27T10:27:33;12.60;99.90
11838;DHT22;5978;51.020;6.764;2024-01-27T10:29:58;13.00;99.90
11838;DHT22;5978;51.020;6.764;2024-01-27T10:32:24;13.50;99.90
11838;DHT22;5978;51.020;6.764;2024-01-27T10:35:05;13.70;99.90
11838;DHT22;5978;51.020;6.764;2024-01-27T10:37:31;14.10;99.90
11838;DHT22;5978;51.020;6.764;2024-01-27T10:40:22;14.60;96.40
11838;DHT22;5978;51.020;6.764;2024-01-27T10:43:04;14.80;93.00
11838;DHT22;5978;51.020;6.764;2024-01-27T10:45:40;15.10;91.70
11838;DHT22;5978;51.020;6.764;2024-01-27T10:48:08;15.70;90.20
11838;DHT22;5978;51.020;6.764;2024-01-27T10:50:37;16.20;87.10
11838;DHT22;5978;51.020;6.764;2024-01-27T10:53:04;15.80;83.40
11838;DHT22;5978;51.020;6.764;2024-01-27T10:55:33;15.10;81.40
11838;DHT22;5978;51.020;6.764;2024-01-27T10:57:59;14.70;83.80
11838;DHT22;5978;51.020;6.764;2024-01-27T11:00:28;13.90;83.40
11838;DHT22;5978;51.020;6.764;2024-01-27T11:02:59;13.10;86.70
11838;DHT22;5978;51.020;6.764;2024-01-27T11:05:27;12.60;90.50
11838;DHT22;5978;51.020;6.764;2024-01-27T11:07:55;12.10;91.90
11838;DHT22;5978;51.020;6.764;2024-01-27T11:10:22;11.70;94.50
11838;DHT22;5978;51.020;6.764;2024-01-27T11:12:49;11.50;97.30
11838;DHT22;5978;51.020;6.764;2024-01-27T11:15:15;11.60;99.90
11838;DHT22;5978;51.020;6.764;2024-01-27T11:17:41;12.20;99.90
11838;DHT22;5978;51.020;6.764;2024-01-27T11:20:10;13.20;97.90
11838;DHT22;5978;51.020;6.764;2024-01-27T11:26:08;14.70;92.70
11838;DHT22;5978;51.020;6.764;2024-01-27T11:28:34;16.30;87.90
11838;DHT22;5978;51.020;6.764;2024-01-27T11:31:05;16.90;80.70
11838;DHT22;5978;51.020;6.764;2024-01-27T11:33:31;17.60;79.20
11838;DHT22;5978;51.020;6.764;2024-01-27T11:36:05;18.20;75.90
11838;DHT22;5978;51.020;6.764;2024-01-27T11:38:31;18.70;74.00
11838;DHT22;5978;51.020;6.764;2024-01-27T11:40:59;19.20;69.30
11838;DHT22;5978;51.020;6.764;2024-01-27T11:43:25;19.00;67.40
11838;DHT22;5978;51.020;6.764;2024-01-27T11:46:01;19.50;68.20
11838;DHT22;5978;51.020;6.764;2024-01-27T11:48:27;19.50;66.70
11838;DHT22;5978;51.020;6.764;2024-01-27T11:51:06;19.20;65.10
11838;DHT22;5978;51.020;6.764;2024-01-27T11:53:31;20.20;66.60
11838;DHT22;5978;51.020;6.764;2024-01-27T11:55:57;20.30;62.30
11838;DHT22;5978;51.020;6.764;2024-01-27T11:58:24;20.90;62.40
11838;DHT22;5978;51.020;6.764;2024-01-27T12:00:50;21.20;59.90
11838;DHT22;5978;51.020;6.764;2024-01-27T12:03:15;20.60;59.70
11838;DHT22;5978;51.020;6.764;2024-01-27T12:05:41;20.70;59.40
11838;DHT22;5978;51.020;6.764;2024-01-27T12:08:10;21.00;59.50
11838;DHT22;5978;51.020;6.764;2024-01-27T12:10:36;21.60;60.20
11838;DHT22;5978;51.020;6.764;2024-01-27T12:13:02;21.90;58.50
11838;DHT22;5978;51.020;6.764;2024-01-27T12:15:28;21.70;57.20
11838;DHT22;5978;51.020;6.764;2024-01-27T12:17:53;22.30;57.40
11838;DHT22;5978;51.020;6.764;2024-01-27T12:20:19;23.00;58.00
11838;DHT22;5978;51.020;6.764;2024-01-27T12:22:47;23.20;56.00
11838;DHT22;5978;51.020;6.764;2024-01-27T12:25:15;22.30;55.00
11838;DHT22;5978;51.020;6.764;2024-01-27T12:27:40;22.30;55.30
11838;DHT22;5978;51.020;6.764;2024-01-27T12:30:06;21.40;54.60
11838;DHT22;5978;51.020;6.764;2024-01-27T12:32:33;21.30;55.50
11838;DHT22;5978;51.020;6.764;2024-01-27T12:35:04;21.60;55.60
11838;DHT22;5978;51.020;6.764;2024-01-27T12:37:29;21.50;55.40
11838;DHT22;5978;51.020;6.764;2024-01-27T12:39:55;21.10;55.70
11838;DHT22;5978;51.020;6.764;2024-01-27T12:42:20;21.60;56.40
11838;DHT22;5978;51.020;6.764;2024-01-27T12:44:46;22.10;55.90
11838;DHT22;5978;51.020;6.764;2024-01-27T12:47:12;22.70;55.70
11838;DHT22;5978;51.020;6.764;2024-01-27T12:49:39;23.40;54.70
11838;DHT22;5978;51.020;6.764;2024-01-27T12:52:05;23.90;54.00
11838;DHT22;5978;51.020;6.764;2024-01-27T12:54:31;24.30;54.00
11838;DHT22;5978;51.020;6.764;2024-01-27T12:56:57;24.30;53.60
11838;DHT22;5978;51.020;6.764;2024-01-27T12:59:22;24.60;53.00
11838;DHT22;5978;51.020;6.764;2024-01-27T13:01:49;23.90;52.20
11838;DHT22;5978;51.020;6.764;2024-01-27T13:04:15;23.60;51.60
11838;DHT22;5978;51.020;6.764;2024-01-27T13:06:41;23.80;52.30
11838;DHT22;5978;51.020;6.764;2024-01-27T13:09:07;23.40;51.30
11838;DHT22;5978;51.020;6.764;2024-01-27T13:11:37;23.90;52.20
11838;DHT22;5978;51.020;6.764;2024-01-27T13:14:02;23.90;51.60
11838;DHT22;5978;51.020;6.764;2024-01-27T13:16:28;23.60;52.00
11838;DHT22;5978;51.020;6.764;2024-01-27T13:18:54;23.80;50.90
11838;DHT22;5978;51.020;6.764;2024-01-27T13:21:20;23.60;50.70
11838;DHT22;5978;51.020;6.764;2024-01-27T13:23:46;24.20;50.60
11838;DHT22;5978;51.020;6.764;2024-01-27T13:26:11;24.50;50.40
11838;DHT22;5978;51.020;6.764;2024-01-27T13:28:37;24.80;49.10
11838;DHT22;5978;51.020;6.764;2024-01-27T13:31:03;24.70;49.70
11838;DHT22;5978;51.020;6.764;2024-01-27T13:33:30;24.10;49.30
11838;DHT22;5978;51.020;6.764;2024-01-27T13:35:55;23.50;48.80
11838;DHT22;5978;51.020;6.764;2024-01-27T13:38:21;23.40;49.40
11838;DHT22;5978;51.020;6.764;2024-01-27T13:40:52;23.00;49.90
11838;DHT22;5978;51.020;6.764;2024-01-27T13:43:17;22.50;50.60
11838;DHT22;5978;51.020;6.764;2024-01-27T13:45:43;22.80;51.00
11838;DHT22;5978;51.020;6.764;2024-01-27T13:48:09;22.90;50.70
11838;DHT22;5978;51.020;6.764;2024-01-27T13:50:35;22.60;49.70
11838;DHT22;5978;51.020;6.764;2024-01-27T13:53:01;22.80;50.50
11838;DHT22;5978;51.020;6.764;2024-01-27T13:55:27;23.00;50.40
11838;DHT22;5978;51.020;6.764;2024-01-27T13:57:53;22.90;50.40
11838;DHT22;5978;51.020;6.764;2024-01-27T14:00:19;23.30;50.10
11838;DHT22;5978;51.020;6.764;2024-01-27T14:02:45;23.70;49.10
11838;DHT22;5978;51.020;6.764;2024-01-27T14:05:10;24.00;49.30
11838;DHT22;5978;51.020;6.764;2024-01-27T14:07:36;23.40;48.40
11838;DHT22;5978;51.020;6.764;2024-01-27T14:10:02;23.50;48.40
11838;DHT22;5978;51.020;6.764;2024-01-27T14:12:28;23.00;49.30
11838;DHT22;5978;51.020;6.764;2024-01-27T14:15:02;22.90;50.20
11838;DHT22;5978;51.020;6.764;2024-01-27T14:17:28;22.70;49.90
11838;DHT22;5978;51.020;6.764;2024-01-27T14:19:54;22.80;49.80
11838;DHT22;5978;51.020;6.764;2024-01-27T14:22:19;22.80;49.70
11838;DHT22;5978;51.020;6.764;2024-01-27T14:24:45;22.50;49.20
11838;DHT22;5978;51.020;6.764;2024-01-27T14:27:10;22.30;49.10
11838;DHT22;5978;51.020;6.764;2024-01-27T14:29:36;21.70;49.20
11838;DHT22;5978;51.020;6.764;2024-01-27T14:32:03;22.20;49.80
11838;DHT22;5978;51.020;6.764;2024-01-27T14:34:28;22.30;49.00
11838;DHT22;5978;51.020;6.764;2024-01-27T14:36:54;22.50;48.70
11838;DHT22;5978;51.020;6.764;2024-01-27T14:39:20;22.20;49.30
11838;DHT22;5978;51.020;6.764;2024-01-27T14:41:46;22.40;48.80
11838;DHT22;5978;51.020;6.764;2024-01-27T14:44:11;22.40;48.70
11838;DHT22;5978;51.020;6.764;2024-01-27T14:46:37;22.30;48.80
11838;DHT22;5978;51.020;6.764;2024-01-27T14:49:06;21.70;49.00
11838;DHT22;5978;51.020;6.764;2024-01-27T14:51:34;20.90;49.30
11838;DHT22;5978;51.020;6.764;2024-01-27T14:54:00;20.50;50.30
11838;DHT22;5978;51.020;6.764;2024-01-27T14:56:32;19.50;50.90
11838;DHT22;5978;51.020;6.764;2024-01-27T14:58:58;18.70;51.70
11838;DHT22;5978;51.020;6.764;2024-01-27T15:01:24;17.80;52.80
11838;DHT22;5978;51.020;6.764;2024-01-27T15:03:50;16.90;53.80
11838;DHT22;5978;51.020;6.764;2024-01-27T15:06:16;16.30;54.90
11838;DHT22;5978;51.020;6.764;2024-01-27T15:08:42;16.10;55.90
11838;DHT22;5978;51.020;6.764;2024-01-27T15:11:11;15.90;56.80
11838;DHT22;5978;51.020;6.764;2024-01-27T15:13:36;15.90;57.60
11838;DHT22;5978;51.020;6.764;2024-01-27T15:16:02;15.70;58.20
11838;DHT22;5978;51.020;6.764;2024-01-27T15:18:28;15.30;59.40
11838;DHT22;5978;51.020;6.764;2024-01-27T15:20:53;14.90;59.70
11838;DHT22;5978;51.020;6.764;2024-01-27T15:23:19;14.50;60.50
11838;DHT22;5978;51.020;6.764;2024-01-27T15:25:46;14.20;62.10
11838;DHT22;5978;51.020;6.764;2024-01-27T15:28:13;14.00;62.20
11838;DHT22;5978;51.020;6.764;2024-01-27T15:30:38;13.80;63.50
11838;DHT22;5978;51.020;6.764;2024-01-27T15:33:04;13.30;64.60
11838;DHT22;5978;51.020;6.764;2024-01-27T15:35:30;12.80;66.60
11838;DHT22;5978;51.020;6.764;2024-01-27T15:37:58;12.30;68.80
11838;DHT22;5978;51.020;6.764;2024-01-27T15:40:24;11.90;72.30
11838;DHT22;5978;51.020;6.764;2024-01-27T15:42:51;11.60;74.60
11838;DHT22;5978;51.020;6.764;2024-01-27T15:45:17;11.40;77.10
11838;DHT22;5978;51.020;6.764;2024-01-27T15:47:42;11.20;82.50
11838;DHT22;5978;51.020;6.764;2024-01-27T15:50:08;11.10;85.60
11838;DHT22;5978;51.020;6.764;2024-01-27T15:52:36;11.00;88.90